sensor_id;sensor_type;location;lat;lon;timestamp;pressure;altitude;pressure_sealevel;temperature;humidity
60337;BME280;46978;50.288;28.624;2023-05-08T00:00:14;99945.14;;;6.37;48.90
60337;BME280;46978;50.288;28.624;2023-05-08T00:01:18;99933.09;;;6.37;49.16
60337;BME280;46978;50.288;28.624;2023-05-08T00:02:20;99936.55;;;6.39;48.86
60337;BME280;46978;50.288;28.624;2023-05-08T00:03:21;99935.70;;;6.40;49.19
60337;BME280;46978;50.288;28.624;2023-05-08T00:04:23;99947.73;;;6.40;49.15
60337;BME280;46978;50.288;28.624;2023-05-08T00:05:25;99941.71;;;6.41;48.68
60337;BME280;46978;50.288;28.624;2023-05-08T00:06:27;99934.88;;;6.43;48.66
60337;BME280;46978;50.288;28.624;2023-05-08T00:07:29;99935.73;;;6.43;48.67
60337;BME280;46978;50.288;28.624;2023-05-08T00:08:31;99935.73;;;6.45;48.53
60337;BME280;46978;50.288;28.624;2023-05-08T00:09:33;99937.48;;;6.46;48.47
60337;BME280;46978;50.288;28.624;2023-05-08T00:10:34;99932.32;;;6.46;48.69
60337;BME280;46978;50.288;28.624;2023-05-08T00:11:36;99942.64;;;6.48;48.67
60337;BME280;46978;50.288;28.624;2023-05-08T00:12:38;99952.07;;;6.47;48.72
60337;BME280;46978;50.288;28.624;2023-05-08T00:13:39;99952.07;;;6.47;48.92
60337;BME280;46978;50.288;28.624;2023-05-08T00:14:41;99942.63;;;6.46;48.72
60337;BME280;46978;50.288;28.624;2023-05-08T00:15:42;99947.78;;;6.44;49.05
60337;BME280;46978;50.288;28.624;2023-05-08T00:16:44;99943.47;;;6.45;48.76
60337;BME280;46978;50.288;28.624;2023-05-08T00:17:46;99945.20;;;6.44;48.63
60337;BME280;46978;50.288;28.624;2023-05-08T00:18:47;99940.90;;;6.45;48.66
60337;BME280;46978;50.288;28.624;2023-05-08T00:19:49;99952.93;;;6.44;48.76
60337;BME280;46978;50.288;28.624;2023-05-08T00:20:51;99939.16;;;6.44;48.40
60337;BME280;46978;50.288;28.624;2023-05-08T00:21:53;99938.33;;;6.46;48.22
60337;BME280;46978;50.288;28.624;2023-05-08T00:22:54;99946.91;;;6.47;48.73
60337;BME280;46978;50.288;28.624;2023-05-08T00:23:56;99940.90;;;6.45;48.50
60337;BME280;46978;50.288;28.624;2023-05-08T00:24:57;99951.20;;;6.45;48.61
60337;BME280;46978;50.288;28.624;2023-05-08T00:25:59;99956.36;;;6.45;48.49
60337;BME280;46978;50.288;28.624;2023-05-08T00:27:01;99944.33;;;6.45;48.49
60337;BME280;46978;50.288;28.624;2023-05-08T00:28:03;99943.48;;;6.46;48.54
60337;BME280;46978;50.288;28.624;2023-05-08T00:29:04;99952.06;;;6.45;48.68
60337;BME280;46978;50.288;28.624;2023-05-08T00:30:07;99946.89;;;6.44;48.75
60337;BME280;46978;50.288;28.624;2023-05-08T00:31:09;99948.62;;;6.43;48.77
60337;BME280;46978;50.288;28.624;2023-05-08T00:32:11;99937.45;;;6.43;48.78
60337;BME280;46978;50.288;28.624;2023-05-08T00:33:12;99947.77;;;6.43;48.75
60337;BME280;46978;50.288;28.624;2023-05-08T00:34:14;99949.45;;;6.42;48.88
60337;BME280;46978;50.288;28.624;2023-05-08T00:35:16;99946.02;;;6.42;49.01
60337;BME280;46978;50.288;28.624;2023-05-08T00:36:18;99948.61;;;6.42;48.89
60337;BME280;46978;50.288;28.624;2023-05-08T00:37:20;99949.45;;;6.41;48.74
60337;BME280;46978;50.288;28.624;2023-05-08T00:38:21;99952.02;;;6.41;48.95
60337;BME280;46978;50.288;28.624;2023-05-08T00:39:23;99943.44;;;6.40;48.81
60337;BME280;46978;50.288;28.624;2023-05-08T00:40:25;99945.17;;;6.41;48.29
60337;BME280;46978;50.288;28.624;2023-05-08T00:41:29;99954.61;;;6.42;48.54
60337;BME280;46978;50.288;28.624;2023-05-08T00:42:31;99950.34;;;6.43;48.64
60337;BME280;46978;50.288;28.624;2023-05-08T00:43:33;99958.91;;;6.42;48.81
60337;BME280;46978;50.288;28.624;2023-05-08T00:44:34;99958.91;;;6.42;48.70
60337;BME280;46978;50.288;28.624;2023-05-08T00:45:38;99953.77;;;6.42;48.54
60337;BME280;46978;50.288;28.624;2023-05-08T00:46:41;99964.92;;;6.42;48.66
60337;BME280;46978;50.288;28.624;2023-05-08T00:47:43;99964.92;;;6.42;48.89
60337;BME280;46978;50.288;28.624;2023-05-08T00:48:46;99964.92;;;6.42;48.89
60337;BME280;46978;50.288;28.624;2023-05-08T00:49:48;99962.33;;;6.41;48.98
60337;BME280;46978;50.288;28.624;2023-05-08T00:50:51;99964.06;;;6.40;48.58
60337;BME280;46978;50.288;28.624;2023-05-08T00:51:55;99964.91;;;6.41;48.73
60337;BME280;46978;50.288;28.624;2023-05-08T00:52:59;99972.64;;;6.41;48.78
60337;BME280;46978;50.288;28.624;2023-05-08T00:54:02;99967.48;;;6.41;48.81
60337;BME280;46978;50.288;28.624;2023-05-08T00:55:05;99958.91;;;6.40;48.89
60337;BME280;46978;50.288;28.624;2023-05-08T00:56:10;99958.91;;;6.40;49.03
60337;BME280;46978;50.288;28.624;2023-05-08T00:57:14;99958.06;;;6.41;48.93
60337;BME280;46978;50.288;28.624;2023-05-08T00:58:17;99964.06;;;6.40;49.17
60337;BME280;46978;50.288;28.624;2023-05-08T00:59:20;99969.22;;;6.40;48.69
60337;BME280;46978;50.288;28.624;2023-05-08T01:00:22;99964.91;;;6.41;48.78
60337;BME280;46978;50.288;28.624;2023-05-08T01:01:24;99961.49;;;6.42;48.72
60337;BME280;46978;50.288;28.624;2023-05-08T01:02:26;99964.07;;;6.42;48.80
60337;BME280;46978;50.288;28.624;2023-05-08T01:03:28;99964.92;;;6.42;48.79
60337;BME280;46978;50.288;28.624;2023-05-08T01:04:32;99968.38;;;6.41;48.46
60337;BME280;46978;50.288;28.624;2023-05-08T01:05:35;99963.23;;;6.43;48.68
60337;BME280;46978;50.288;28.624;2023-05-08T01:06:37;99964.92;;;6.42;48.77
60337;BME280;46978;50.288;28.624;2023-05-08T01:07:39;99966.65;;;6.42;48.93
60337;BME280;46978;50.288;28.624;2023-05-08T01:08:43;99958.91;;;6.42;48.93
60337;BME280;46978;50.288;28.624;2023-05-08T01:09:45;99963.22;;;6.41;49.03
60337;BME280;46978;50.288;28.624;2023-05-08T01:13:29;99956.33;;;6.40;48.62
60337;BME280;46978;50.288;28.624;2023-05-08T01:14:55;99964.91;;;6.41;48.85
60337;BME280;46978;50.288;28.624;2023-05-08T01:15:56;99962.33;;;6.41;48.68
60337;BME280;46978;50.288;28.624;2023-05-08T01:18:32;99963.22;;;6.41;48.79
60337;BME280;46978;50.288;28.624;2023-05-08T01:20:05;99960.64;;;6.41;48.81
60337;BME280;46978;50.288;28.624;2023-05-08T01:22:32;99963.20;;;6.40;49.08
60337;BME280;46978;50.288;28.624;2023-05-08T01:25:24;99961.47;;;6.39;49.17
60337;BME280;46978;50.288;28.624;2023-05-08T01:30:33;99959.73;;;6.38;49.36
60337;BME280;46978;50.288;28.624;2023-05-08T01:32:49;99967.45;;;6.36;49.35
60337;BME280;46978;50.288;28.624;2023-05-08T01:35:16;99970.02;;;6.35;49.19
60337;BME280;46978;50.288;28.624;2023-05-08T01:37:37;99961.44;;;6.36;49.29
60337;BME280;46978;50.288;28.624;2023-05-08T01:38:54;99968.32;;;6.35;49.44
60337;BME280;46978;50.288;28.624;2023-05-08T01:39:56;99970.90;;;6.35;49.39
60337;BME280;46978;50.288;28.624;2023-05-08T01:41:07;99970.03;;;6.36;49.30
60337;BME280;46978;50.288;28.624;2023-05-08T01:42:25;99977.75;;;6.35;49.28
60337;BME280;46978;50.288;28.624;2023-05-08T01:45:29;99976.92;;;6.37;49.54
60337;BME280;46978;50.288;28.624;2023-05-08T01:46:31;99974.33;;;6.36;49.51
60337;BME280;46978;50.288;28.624;2023-05-08T01:47:35;99980.33;;;6.35;49.39
60337;BME280;46978;50.288;28.624;2023-05-08T01:48:43;99974.33;;;6.36;49.39
60337;BME280;46978;50.288;28.624;2023-05-08T01:49:46;99981.20;;;6.35;49.29
60337;BME280;46978;50.288;28.624;2023-05-08T01:50:55;99983.80;;;6.37;49.49
60337;BME280;46978;50.288;28.624;2023-05-08T01:52:02;99984.64;;;6.36;49.51
60337;BME280;46978;50.288;28.624;2023-05-08T01:53:25;99976.05;;;6.35;49.41
60337;BME280;46978;50.288;28.624;2023-05-08T01:54:27;99977.77;;;6.36;49.13
60337;BME280;46978;50.288;28.624;2023-05-08T01:55:33;99988.95;;;6.37;49.42
60337;BME280;46978;50.288;28.624;2023-05-08T01:56:37;99988.07;;;6.36;49.72
60337;BME280;46978;50.288;28.624;2023-05-08T01:57:43;99986.36;;;6.35;49.86
60337;BME280;46978;50.288;28.624;2023-05-08T01:58:47;99993.20;;;6.33;50.21
60337;BME280;46978;50.288;28.624;2023-05-08T01:59:50;99999.23;;;6.32;50.12
60337;BME280;46978;50.288;28.624;2023-05-08T02:00:54;99994.05;;;6.31;50.42
60337;BME280;46978;50.288;28.624;2023-05-08T02:01:57;99997.48;;;6.31;50.45
60337;BME280;46978;50.288;28.624;2023-05-08T02:03:01;100000.91;;;6.30;50.53
60337;BME280;46978;50.288;28.624;2023-05-08T02:04:06;100004.34;;;6.29;50.77
60337;BME280;46978;50.288;28.624;2023-05-08T02:05:09;100004.34;;;6.29;50.77
60337;BME280;46978;50.288;28.624;2023-05-08T02:06:14;100006.91;;;6.27;51.15
60337;BME280;46978;50.288;28.624;2023-05-08T02:07:20;100012.92;;;6.28;51.56
60337;BME280;46978;50.288;28.624;2023-05-08T02:08:24;100011.18;;;6.27;51.69
60337;BME280;46978;50.288;28.624;2023-05-08T02:09:28;100017.20;;;6.26;52.12
60337;BME280;46978;50.288;28.624;2023-05-08T02:10:31;100012.05;;;6.26;52.20
60337;BME280;46978;50.288;28.624;2023-05-08T02:11:35;100011.15;;;6.24;52.69
60337;BME280;46978;50.288;28.624;2023-05-08T02:12:38;100011.17;;;6.25;52.38
60337;BME280;46978;50.288;28.624;2023-05-08T02:13:43;100018.06;;;6.26;52.55
60337;BME280;46978;50.288;28.624;2023-05-08T02:14:46;100021.48;;;6.27;53.24
60337;BME280;46978;50.288;28.624;2023-05-08T02:15:52;100023.21;;;6.26;53.05
60337;BME280;46978;50.288;28.624;2023-05-08T02:16:55;100025.78;;;6.25;54.02
60337;BME280;46978;50.288;28.624;2023-05-08T02:17:58;100025.78;;;6.25;54.02
60337;BME280;46978;50.288;28.624;2023-05-08T02:19:01;100019.75;;;6.23;53.71
60337;BME280;46978;50.288;28.624;2023-05-08T02:20:05;100020.59;;;6.22;54.19
60337;BME280;46978;50.288;28.624;2023-05-08T02:21:09;100018.02;;;6.22;54.28
60337;BME280;46978;50.288;28.624;2023-05-08T02:22:12;100020.56;;;6.19;54.36
60337;BME280;46978;50.288;28.624;2023-05-08T02:23:17;100026.55;;;6.18;54.36
60337;BME280;46978;50.288;28.624;2023-05-08T02:24:20;100025.68;;;6.16;54.80
60337;BME280;46978;50.288;28.624;2023-05-08T02:25:23;100028.23;;;6.14;55.33
60337;BME280;46978;50.288;28.624;2023-05-08T02:26:26;100019.64;;;6.12;55.29
60337;BME280;46978;50.288;28.624;2023-05-08T02:27:29;100031.64;;;6.12;55.52
60337;BME280;46978;50.288;28.624;2023-05-08T02:28:32;100030.75;;;6.08;56.43
60337;BME280;46978;50.288;28.624;2023-05-08T02:29:34;100028.16;;;6.06;56.40
60337;BME280;46978;50.288;28.624;2023-05-08T02:30:37;100027.29;;;6.04;57.21
60337;BME280;46978;50.288;28.624;2023-05-08T02:31:41;100034.98;;;6.01;57.54
60337;BME280;46978;50.288;28.624;2023-05-08T02:32:45;100030.66;;;5.99;57.36
60337;BME280;46978;50.288;28.624;2023-05-08T02:33:48;100039.22;;;5.98;57.44
60337;BME280;46978;50.288;28.624;2023-05-08T02:34:52;100027.14;;;5.93;58.13
60337;BME280;46978;50.288;28.624;2023-05-08T02:35:55;100027.14;;;5.93;58.13
60337;BME280;46978;50.288;28.624;2023-05-08T02:36:58;100036.55;;;5.93;58.16
60337;BME280;46978;50.288;28.624;2023-05-08T02:38:00;100038.27;;;5.92;58.25
60337;BME280;46978;50.288;28.624;2023-05-08T02:39:02;100045.13;;;5.90;59.25
60337;BME280;46978;50.288;28.624;2023-05-08T02:40:08;100041.65;;;5.88;59.55
60337;BME280;46978;50.288;28.624;2023-05-08T02:41:12;100039.08;;;5.88;59.42
60337;BME280;46978;50.288;28.624;2023-05-08T02:42:16;100037.37;;;5.87;59.17
60337;BME280;46978;50.288;28.624;2023-05-08T02:43:18;100045.09;;;5.87;59.49
60337;BME280;46978;50.288;28.624;2023-05-08T02:44:19;100040.80;;;5.88;59.55
60337;BME280;46978;50.288;28.624;2023-05-08T02:45:24;100045.95;;;5.88;59.92
60337;BME280;46978;50.288;28.624;2023-05-08T02:46:33;100045.11;;;5.89;60.17
60337;BME280;46978;50.288;28.624;2023-05-08T02:47:42;100045.97;;;5.89;60.03
60337;BME280;46978;50.288;28.624;2023-05-08T02:48:59;100047.70;;;5.90;60.17
60337;BME280;46978;50.288;28.624;2023-05-08T02:50:05;100048.56;;;5.91;60.42
60337;BME280;46978;50.288;28.624;2023-05-08T02:51:19;100051.14;;;5.91;60.84
60337;BME280;46978;50.288;28.624;2023-05-08T02:52:34;100051.12;;;5.89;61.57
60337;BME280;46978;50.288;28.624;2023-05-08T02:53:39;100045.97;;;5.89;62.17
60337;BME280;46978;50.288;28.624;2023-05-08T02:54:45;100055.41;;;5.89;61.75
60337;BME280;46978;50.288;28.624;2023-05-08T02:55:48;100056.25;;;5.88;61.68
60337;BME280;46978;50.288;28.624;2023-05-08T02:57:00;100050.20;;;5.84;62.32
60337;BME280;46978;50.288;28.624;2023-05-08T02:59:38;100057.03;;;5.82;62.27
60337;BME280;46978;50.288;28.624;2023-05-08T03:00:59;100054.44;;;5.81;62.39
60337;BME280;46978;50.288;28.624;2023-05-08T03:03:06;100064.75;;;5.82;62.19
60337;BME280;46978;50.288;28.624;2023-05-08T03:04:11;100058.75;;;5.82;62.47
60337;BME280;46978;50.288;28.624;2023-05-08T03:05:19;100060.47;;;5.81;62.65
60337;BME280;46978;50.288;28.624;2023-05-08T03:06:23;100065.62;;;5.81;63.06
60337;BME280;46978;50.288;28.624;2023-05-08T03:07:27;100068.18;;;5.80;64.10
60337;BME280;46978;50.288;28.624;2023-05-08T03:08:33;100065.59;;;5.78;63.30
60337;BME280;46978;50.288;28.624;2023-05-08T03:09:43;100073.31;;;5.78;63.00
60337;BME280;46978;50.288;28.624;2023-05-08T03:10:42;100068.14;;;5.77;63.38
60337;BME280;46978;50.288;28.624;2023-05-08T03:11:47;100067.27;;;5.78;63.45
60337;BME280;46978;50.288;28.624;2023-05-08T03:12:52;100079.31;;;5.79;64.16
60337;BME280;46978;50.288;28.624;2023-05-08T03:13:57;100077.58;;;5.78;63.58
60337;BME280;46978;50.288;28.624;2023-05-08T03:15:06;100075.89;;;5.78;64.57
60337;BME280;46978;50.288;28.624;2023-05-08T03:16:16;100078.46;;;5.78;64.08
60337;BME280;46978;50.288;28.624;2023-05-08T03:17:16;100079.31;;;5.79;63.81
60337;BME280;46978;50.288;28.624;2023-05-08T03:18:22;100081.89;;;5.79;64.16
60337;BME280;46978;50.288;28.624;2023-05-08T03:19:30;100083.59;;;5.77;64.09
60337;BME280;46978;50.288;28.624;2023-05-08T03:20:36;100081.85;;;5.75;64.94
60337;BME280;46978;50.288;28.624;2023-05-08T03:21:39;100085.22;;;5.71;65.90
60337;BME280;46978;50.288;28.624;2023-05-08T03:22:42;100074.90;;;5.70;65.37
60337;BME280;46978;50.288;28.624;2023-05-08T03:23:47;100084.36;;;5.71;65.62
60337;BME280;46978;50.288;28.624;2023-05-08T03:24:51;100085.20;;;5.70;65.50
60337;BME280;46978;50.288;28.624;2023-05-08T03:25:54;100080.05;;;5.70;65.72
60337;BME280;46978;50.288;28.624;2023-05-08T03:26:58;100090.38;;;5.71;66.07
60337;BME280;46978;50.288;28.624;2023-05-08T03:28:02;100087.81;;;5.73;65.92
60337;BME280;46978;50.288;28.624;2023-05-08T03:29:04;100085.26;;;5.74;66.37
60337;BME280;46978;50.288;28.624;2023-05-08T03:30:08;100084.41;;;5.74;66.07
60337;BME280;46978;50.288;28.624;2023-05-08T03:31:11;100092.16;;;5.75;65.38
60337;BME280;46978;50.288;28.624;2023-05-08T03:32:14;100095.58;;;5.76;66.43
60337;BME280;46978;50.288;28.624;2023-05-08T03:33:17;100095.58;;;5.76;66.43
60337;BME280;46978;50.288;28.624;2023-05-08T03:34:20;100093.05;;;5.79;65.78
60337;BME280;46978;50.288;28.624;2023-05-08T03:35:24;100097.38;;;5.82;66.13
60337;BME280;46978;50.288;28.624;2023-05-08T03:36:27;100095.54;;;5.73;66.55
60337;BME280;46978;50.288;28.624;2023-05-08T03:37:31;100092.16;;;5.75;66.93
60337;BME280;46978;50.288;28.624;2023-05-08T03:38:33;100087.84;;;5.74;66.13
60337;BME280;46978;50.288;28.624;2023-05-08T03:39:35;100090.41;;;5.74;66.11
60337;BME280;46978;50.288;28.624;2023-05-08T03:40:38;100088.72;;;5.75;65.99
60337;BME280;46978;50.288;28.624;2023-05-08T03:41:39;100094.70;;;5.74;66.91
60337;BME280;46978;50.288;28.624;2023-05-08T03:42:42;100093.81;;;5.70;67.44
60337;BME280;46978;50.288;28.624;2023-05-08T03:43:45;100100.61;;;5.67;67.82
60337;BME280;46978;50.288;28.624;2023-05-08T03:44:50;100097.18;;;5.66;68.28
60337;BME280;46978;50.288;28.624;2023-05-08T03:45:53;100102.33;;;5.66;68.60
60337;BME280;46978;50.288;28.624;2023-05-08T03:46:56;100107.45;;;5.65;69.16
60337;BME280;46978;50.288;28.624;2023-05-08T03:47:58;100106.58;;;5.63;68.78
60337;BME280;46978;50.288;28.624;2023-05-08T03:49:02;100101.43;;;5.63;68.79
60337;BME280;46978;50.288;28.624;2023-05-08T03:50:07;100100.56;;;5.64;69.08
60337;BME280;46978;50.288;28.624;2023-05-08T03:51:09;100109.13;;;5.61;69.44
60337;BME280;46978;50.288;28.624;2023-05-08T03:52:12;100099.69;;;5.62;69.08
60337;BME280;46978;50.288;28.624;2023-05-08T03:53:14;100109.98;;;5.62;69.72
60337;BME280;46978;50.288;28.624;2023-05-08T03:54:15;100113.38;;;5.59;69.36
60337;BME280;46978;50.288;28.624;2023-05-08T03:55:17;100111.71;;;5.61;69.18
60337;BME280;46978;50.288;28.624;2023-05-08T03:56:19;100112.54;;;5.60;69.45
60337;BME280;46978;50.288;28.624;2023-05-08T03:57:23;100115.99;;;5.62;69.24
60337;BME280;46978;50.288;28.624;2023-05-08T04:00:10;100117.76;;;5.65;69.89
60337;BME280;46978;50.288;28.624;2023-05-08T04:01:39;100116.91;;;5.64;68.96
60337;BME280;46978;50.288;28.624;2023-05-08T04:02:49;100110.86;;;5.64;69.37
60337;BME280;46978;50.288;28.624;2023-05-08T04:04:02;100123.76;;;5.65;69.48
60337;BME280;46978;50.288;28.624;2023-05-08T04:05:25;100113.46;;;5.65;69.42
60337;BME280;46978;50.288;28.624;2023-05-08T04:08:02;100123.78;;;5.67;70.28
60337;BME280;46978;50.288;28.624;2023-05-08T04:09:26;100121.20;;;5.67;69.40
60337;BME280;46978;50.288;28.624;2023-05-08T04:11:34;100117.86;;;5.72;69.67
60337;BME280;46978;50.288;28.624;2023-05-08T04:13:53;100121.33;;;5.76;70.53
60337;BME280;46978;50.288;28.624;2023-05-08T04:14:53;100121.35;;;5.78;70.72
60337;BME280;46978;50.288;28.624;2023-05-08T04:16:08;100117.09;;;5.78;70.76
60337;BME280;46978;50.288;28.624;2023-05-08T04:17:13;100111.98;;;5.81;70.80
60337;BME280;46978;50.288;28.624;2023-05-08T04:18:17;100117.16;;;5.83;71.23
60337;BME280;46978;50.288;28.624;2023-05-08T04:19:25;100118.03;;;5.85;70.34
60337;BME280;46978;50.288;28.624;2023-05-08T04:20:28;100113.75;;;5.87;70.56
60337;BME280;46978;50.288;28.624;2023-05-08T04:21:33;100118.91;;;5.87;71.33
60337;BME280;46978;50.288;28.624;2023-05-08T04:22:37;100118.96;;;5.91;71.29
60337;BME280;46978;50.288;28.624;2023-05-08T04:23:41;100101.73;;;5.86;71.74
60337;BME280;46978;50.288;28.624;2023-05-08T04:24:45;100119.89;;;5.95;70.54
60337;BME280;46978;50.288;28.624;2023-05-08T04:25:50;100119.94;;;5.97;71.45
60337;BME280;46978;50.288;28.624;2023-05-08T04:26:53;100121.69;;;6.01;70.88
60337;BME280;46978;50.288;28.624;2023-05-08T04:27:55;100125.19;;;6.04;70.15
60337;BME280;46978;50.288;28.624;2023-05-08T04:28:58;100115.73;;;6.05;70.36
60337;BME280;46978;50.288;28.624;2023-05-08T04:30:01;100125.25;;;6.09;69.03
60337;BME280;46978;50.288;28.624;2023-05-08T04:31:03;100115.80;;;6.09;69.16
60337;BME280;46978;50.288;28.624;2023-05-08T04:32:06;100122.77;;;6.17;69.61
60337;BME280;46978;50.288;28.624;2023-05-08T04:33:09;100115.09;;;6.21;69.70
60337;BME280;46978;50.288;28.624;2023-05-08T04:34:11;100121.16;;;6.26;69.27
60337;BME280;46978;50.288;28.624;2023-05-08T04:35:14;100121.20;;;6.31;68.56
60337;BME280;46978;50.288;28.624;2023-05-08T04:36:16;100116.10;;;6.36;68.69
60337;BME280;46978;50.288;28.624;2023-05-08T04:37:26;100119.58;;;6.41;68.40
60337;BME280;46978;50.288;28.624;2023-05-08T04:38:28;100120.50;;;6.44;68.66
60337;BME280;46978;50.288;28.624;2023-05-08T04:39:29;100117.97;;;6.49;68.16
60337;BME280;46978;50.288;28.624;2023-05-08T04:40:31;100118.02;;;6.54;67.32
60337;BME280;46978;50.288;28.624;2023-05-08T04:41:33;100116.33;;;6.57;66.96
60337;BME280;46978;50.288;28.624;2023-05-08T04:42:35;100123.24;;;6.63;66.84
60337;BME280;46978;50.288;28.624;2023-05-08T04:43:36;100123.29;;;6.68;66.68
60337;BME280;46978;50.288;28.624;2023-05-08T04:44:38;100125.05;;;6.70;66.59
60337;BME280;46978;50.288;28.624;2023-05-08T04:45:40;100125.09;;;6.75;66.25
60337;BME280;46978;50.288;28.624;2023-05-08T04:46:42;100118.25;;;6.80;65.97
60337;BME280;46978;50.288;28.624;2023-05-08T04:47:43;100120.89;;;6.86;65.86
60337;BME280;46978;50.288;28.624;2023-05-08T04:48:45;100120.09;;;6.92;65.07
60337;BME280;46978;50.288;28.624;2023-05-08T04:49:46;100121.86;;;6.96;64.32
60337;BME280;46978;50.288;28.624;2023-05-08T04:50:48;100121.02;;;7.00;64.37
60337;BME280;46978;50.288;28.624;2023-05-08T04:51:50;100117.63;;;7.06;64.50
60337;BME280;46978;50.288;28.624;2023-05-08T04:52:51;100116.78;;;7.07;64.22
60337;BME280;46978;50.288;28.624;2023-05-08T04:53:53;100117.63;;;7.06;64.41
60337;BME280;46978;50.288;28.624;2023-05-08T04:54:55;100124.55;;;7.10;64.52
60337;BME280;46978;50.288;28.624;2023-05-08T04:55:56;100123.70;;;7.14;64.32
60337;BME280;46978;50.288;28.624;2023-05-08T04:56:59;100118.60;;;7.22;64.39
60337;BME280;46978;50.288;28.624;2023-05-08T04:58:00;100123.83;;;7.29;63.71
60337;BME280;46978;50.288;28.624;2023-05-08T04:59:02;100126.47;;;7.39;63.99
60337;BME280;46978;50.288;28.624;2023-05-08T05:00:05;100143.77;;;7.47;62.16
60337;BME280;46978;50.288;28.624;2023-05-08T05:01:08;100125.73;;;7.53;60.67
60337;BME280;46978;50.288;28.624;2023-05-08T05:02:09;100125.75;;;7.58;60.71
60337;BME280;46978;50.288;28.624;2023-05-08T05:03:11;100130.94;;;7.61;60.01
60337;BME280;46978;50.288;28.624;2023-05-08T05:04:12;100125.80;;;7.64;59.80
60337;BME280;46978;50.288;28.624;2023-05-08T05:05:14;100137.00;;;7.68;60.16
60337;BME280;46978;50.288;28.624;2023-05-08T05:06:16;100131.85;;;7.71;59.61
60337;BME280;46978;50.288;28.624;2023-05-08T05:07:18;100131.00;;;7.70;58.36
60337;BME280;46978;50.288;28.624;2023-05-08T05:08:19;100131.00;;;7.72;58.70
60337;BME280;46978;50.288;28.624;2023-05-08T05:09:21;100131.03;;;7.77;59.06
60337;BME280;46978;50.288;28.624;2023-05-08T05:10:23;100132.75;;;7.75;57.72
60337;BME280;46978;50.288;28.624;2023-05-08T05:11:24;100131.89;;;7.77;58.85
60337;BME280;46978;50.288;28.624;2023-05-08T05:12:26;100136.21;;;7.78;58.31
60337;BME280;46978;50.288;28.624;2023-05-08T05:13:28;100135.38;;;7.82;58.02
60337;BME280;46978;50.288;28.624;2023-05-08T05:14:29;100140.56;;;7.84;58.21
60337;BME280;46978;50.288;28.624;2023-05-08T05:15:31;100136.23;;;7.83;56.97
60337;BME280;46978;50.288;28.624;2023-05-08T05:16:33;100135.40;;;7.85;56.05
60337;BME280;46978;50.288;28.624;2023-05-08T05:17:35;100132.79;;;7.81;54.79
60337;BME280;46978;50.288;28.624;2023-05-08T05:18:36;100134.50;;;7.83;55.30
60337;BME280;46978;50.288;28.624;2023-05-08T05:19:38;100128.50;;;7.86;55.46
60337;BME280;46978;50.288;28.624;2023-05-08T05:20:39;100133.67;;;7.86;54.31
60337;BME280;46978;50.288;28.624;2023-05-08T05:21:41;100140.52;;;7.76;54.42
60337;BME280;46978;50.288;28.624;2023-05-08T05:22:43;100134.48;;;7.79;53.97
60337;BME280;46978;50.288;28.624;2023-05-08T05:23:45;100141.39;;;7.81;54.25
60337;BME280;46978;50.288;28.624;2023-05-08T05:24:46;100132.84;;;7.90;54.28
60337;BME280;46978;50.288;28.624;2023-05-08T05:25:48;100137.14;;;7.93;54.17
60337;BME280;46978;50.288;28.624;2023-05-08T05:26:50;100144.05;;;7.94;53.98
60337;BME280;46978;50.288;28.624;2023-05-08T05:27:51;100144.08;;;8.00;53.83
60337;BME280;46978;50.288;28.624;2023-05-08T05:28:53;100145.80;;;8.04;54.20
60337;BME280;46978;50.288;28.624;2023-05-08T05:29:55;100146.72;;;8.12;54.15
60337;BME280;46978;50.288;28.624;2023-05-08T05:30:56;100142.42;;;8.19;53.46
60337;BME280;46978;50.288;28.624;2023-05-08T05:31:58;100153.63;;;8.21;52.35
60337;BME280;46978;50.288;28.624;2023-05-08T05:33:00;100146.78;;;8.26;51.81
60337;BME280;46978;50.288;28.624;2023-05-08T05:34:02;100140.73;;;8.30;52.13
60337;BME280;46978;50.288;28.624;2023-05-08T05:35:04;100139.05;;;8.32;51.99
60337;BME280;46978;50.288;28.624;2023-05-08T05:36:06;100147.66;;;8.34;52.31
60337;BME280;46978;50.288;28.624;2023-05-08T05:37:08;100156.27;;;8.33;51.10
60337;BME280;46978;50.288;28.624;2023-05-08T05:38:10;100140.75;;;8.33;51.71
60337;BME280;46978;50.288;28.624;2023-05-08T05:39:11;100140.74;;;8.32;51.89
60337;BME280;46978;50.288;28.624;2023-05-08T05:40:14;100154.54;;;8.28;51.46
60337;BME280;46978;50.288;28.624;2023-05-08T05:41:15;100141.62;;;8.29;51.12
60337;BME280;46978;50.288;28.624;2023-05-08T05:42:17;100137.32;;;8.36;51.49
60337;BME280;46978;50.288;28.624;2023-05-08T05:43:19;100140.77;;;8.41;50.86
60337;BME280;46978;50.288;28.624;2023-05-08T05:44:20;100140.74;;;8.32;51.52
60337;BME280;46978;50.288;28.624;2023-05-08T05:45:22;100143.36;;;8.39;51.57
60337;BME280;46978;50.288;28.624;2023-05-08T05:46:24;100133.02;;;8.42;51.11
60337;BME280;46978;50.288;28.624;2023-05-08T05:47:25;100141.70;;;8.46;51.30
60337;BME280;46978;50.288;28.624;2023-05-08T05:48:27;100139.96;;;8.43;51.15
60337;BME280;46978;50.288;28.624;2023-05-08T05:49:29;100138.25;;;8.52;51.17
60337;BME280;46978;50.288;28.624;2023-05-08T05:50:30;100139.13;;;8.51;51.01
60337;BME280;46978;50.288;28.624;2023-05-08T05:51:32;100125.33;;;8.55;50.40
60337;BME280;46978;50.288;28.624;2023-05-08T05:52:33;100133.98;;;8.58;50.45
60337;BME280;46978;50.288;28.624;2023-05-08T05:53:35;100133.11;;;8.63;50.22
60337;BME280;46978;50.288;28.624;2023-05-08T05:54:37;100118.47;;;8.63;50.09
60337;BME280;46978;50.288;28.624;2023-05-08T05:55:39;100122.77;;;8.69;50.22
60337;BME280;46978;50.288;28.624;2023-05-08T05:56:41;100120.19;;;8.75;50.43
60337;BME280;46978;50.288;28.624;2023-05-08T05:57:42;100126.27;;;8.82;50.74
60337;BME280;46978;50.288;28.624;2023-05-08T05:58:44;100127.12;;;8.87;50.22
60337;BME280;46978;50.288;28.624;2023-05-08T05:59:45;100126.28;;;8.97;50.27